sensor_id;sensor_type;location;lat;lon;timestamp;pressure;altitude;pressure_sealevel;temperature;humidity
22257;BME280;11297;42.686;23.374;2023-03-01T00:01:51;95513.19;;;8.27;77.50
22257;BME280;11297;42.686;23.374;2023-03-01T00:04:17;95480.25;;;8.04;77.49
22257;BME280;11297;42.686;23.374;2023-03-01T00:06:43;95489.84;;;7.99;77.95
22257;BME280;11297;42.686;23.374;2023-03-01T00:09:12;95485.16;;;8.06;78.83
22257;BME280;11297;42.686;23.374;2023-03-01T00:11:37;95482.69;;;7.86;78.51
22257;BME280;11297;42.686;23.374;2023-03-01T00:14:03;95487.28;;;7.99;78.78
22257;BME280;11297;42.686;23.374;2023-03-01T00:16:37;95492.34;;;8.13;78.40
22257;BME280;11297;42.686;23.374;2023-03-01T00:19:07;95484.88;;;8.12;78.17
22257;BME280;11297;42.686;23.374;2023-03-01T00:21:34;95493.75;;;7.96;78.02
22257;BME280;11297;42.686;23.374;2023-03-01T00:24:01;95438.31;;;7.79;77.82
22257;BME280;11297;42.686;23.374;2023-03-01T00:26:26;95484.47;;;7.90;77.94
22257;BME280;11297;42.686;23.374;2023-03-01T00:28:52;95477.91;;;7.74;79.10
22257;BME280;11297;42.686;23.374;2023-03-01T00:31:20;95473.38;;;7.90;78.94
22257;BME280;11297;42.686;23.374;2023-03-01T00:33:46;95475.22;;;7.84;78.61
22257;BME280;11297;42.686;23.374;2023-03-01T00:36:14;95472.75;;;7.69;78.92
22257;BME280;11297;42.686;23.374;2023-03-01T00:38:44;95464.66;;;7.81;79.63
22257;BME280;11297;42.686;23.374;2023-03-01T00:41:15;95464.59;;;7.86;79.43
22257;BME280;11297;42.686;23.374;2023-03-01T00:43:42;95446.00;;;7.84;78.94
22257;BME280;11297;42.686;23.374;2023-03-01T00:46:13;95458.34;;;7.92;79.24
22257;BME280;11297;42.686;23.374;2023-03-01T00:48:39;95450.31;;;7.93;78.84
22257;BME280;11297;42.686;23.374;2023-03-01T00:53:30;95469.47;;;7.92;78.70
22257;BME280;11297;42.686;23.374;2023-03-01T00:55:57;95454.53;;;7.84;78.61
22257;BME280;11297;42.686;23.374;2023-03-01T00:58:23;95455.88;;;7.77;79.05
22257;BME280;11297;42.686;23.374;2023-03-01T01:00:48;95449.41;;;7.79;79.06
22257;BME280;11297;42.686;23.374;2023-03-01T01:03:13;95448.38;;;7.80;79.27
22257;BME280;11297;42.686;23.374;2023-03-01T01:05:39;95455.13;;;7.76;79.51
22257;BME280;11297;42.686;23.374;2023-03-01T01:08:04;95456.19;;;7.70;79.07
22257;BME280;11297;42.686;23.374;2023-03-01T01:10:30;95453.78;;;7.84;79.14
22257;BME280;11297;42.686;23.374;2023-03-01T01:12:58;95451.56;;;7.67;79.26
22257;BME280;11297;42.686;23.374;2023-03-01T01:15:23;95448.19;;;7.72;78.91
22257;BME280;11297;42.686;23.374;2023-03-01T01:17:49;95464.59;;;7.91;78.80
22257;BME280;11297;42.686;23.374;2023-03-01T01:20:14;95450.16;;;7.85;78.94
22257;BME280;11297;42.686;23.374;2023-03-01T01:22:39;95449.91;;;7.81;78.65
22257;BME280;11297;42.686;23.374;2023-03-01T01:25:05;95458.88;;;7.89;78.46
22257;BME280;11297;42.686;23.374;2023-03-01T01:27:30;95445.69;;;7.90;78.31
22257;BME280;11297;42.686;23.374;2023-03-01T01:29:56;95471.66;;;7.80;78.34
22257;BME280;11297;42.686;23.374;2023-03-01T01:32:22;95441.19;;;7.72;78.03
22257;BME280;11297;42.686;23.374;2023-03-01T01:34:47;95465.72;;;7.75;77.68
22257;BME280;11297;42.686;23.374;2023-03-01T01:37:12;95464.03;;;7.60;77.84
22257;BME280;11297;42.686;23.374;2023-03-01T01:39:38;95457.97;;;7.75;77.68
22257;BME280;11297;42.686;23.374;2023-03-01T01:42:03;95491.09;;;7.68;77.20
22257;BME280;11297;42.686;23.374;2023-03-01T01:44:29;95470.69;;;7.66;77.28
22257;BME280;11297;42.686;23.374;2023-03-01T01:47:02;95477.91;;;7.69;77.65
22257;BME280;11297;42.686;23.374;2023-03-01T01:52:04;95477.69;;;7.66;76.92
22257;BME280;11297;42.686;23.374;2023-03-01T01:54:42;95474.13;;;7.57;77.27
22257;BME280;11297;42.686;23.374;2023-03-01T01:57:22;95459.13;;;7.59;76.76
22257;BME280;11297;42.686;23.374;2023-03-01T01:59:53;95447.81;;;7.50;76.81
22257;BME280;11297;42.686;23.374;2023-03-01T02:02:20;95454.38;;;7.71;75.94
22257;BME280;11297;42.686;23.374;2023-03-01T02:04:47;95449.31;;;7.61;76.21
22257;BME280;11297;42.686;23.374;2023-03-01T02:07:24;95458.50;;;7.72;76.05
22257;BME280;11297;42.686;23.374;2023-03-01T02:09:51;95441.69;;;7.74;75.38
22257;BME280;11297;42.686;23.374;2023-03-01T02:12:20;95448.38;;;7.80;74.92
22257;BME280;11297;42.686;23.374;2023-03-01T02:14:46;95438.25;;;7.84;74.37
22257;BME280;11297;42.686;23.374;2023-03-01T02:17:15;95445.63;;;7.67;74.75
22257;BME280;11297;42.686;23.374;2023-03-01T02:22:30;95437.25;;;7.80;74.91
22257;BME280;11297;42.686;23.374;2023-03-01T02:30:24;95449.75;;;7.68;75.81
22257;BME280;11297;42.686;23.374;2023-03-01T02:32:53;95448.50;;;7.60;76.91
22257;BME280;11297;42.686;23.374;2023-03-01T02:35:20;95458.03;;;7.65;76.96
22257;BME280;11297;42.686;23.374;2023-03-01T02:37:46;95450.72;;;7.77;76.73
22257;BME280;11297;42.686;23.374;2023-03-01T02:40:17;95462.94;;;7.71;76.91
22257;BME280;11297;42.686;23.374;2023-03-01T02:42:56;95464.44;;;7.77;76.31
22257;BME280;11297;42.686;23.374;2023-03-01T02:45:22;95457.94;;;7.80;76.07
22257;BME280;11297;42.686;23.374;2023-03-01T02:47:48;95451.19;;;7.84;76.23
22257;BME280;11297;42.686;23.374;2023-03-01T02:55:27;95441.97;;;7.73;76.45
22257;BME280;11297;42.686;23.374;2023-03-01T02:57:53;95443.75;;;7.72;76.17
22257;BME280;11297;42.686;23.374;2023-03-01T03:00:30;95442.16;;;7.81;75.88
22257;BME280;11297;42.686;23.374;2023-03-01T03:02:58;95438.31;;;7.79;75.88
22257;BME280;11297;42.686;23.374;2023-03-01T03:05:29;95445.78;;;7.80;76.36
22257;BME280;11297;42.686;23.374;2023-03-01T03:07:55;95436.00;;;7.77;76.15
22257;BME280;11297;42.686;23.374;2023-03-01T03:10:26;95439.38;;;7.73;75.95
22257;BME280;11297;42.686;23.374;2023-03-01T03:12:58;95415.75;;;7.51;75.93
22257;BME280;11297;42.686;23.374;2023-03-01T03:15:25;95458.78;;;7.70;75.96
22257;BME280;11297;42.686;23.374;2023-03-01T03:17:51;95447.16;;;7.73;76.44
22257;BME280;11297;42.686;23.374;2023-03-01T03:20:19;95452.88;;;7.65;76.17
22257;BME280;11297;42.686;23.374;2023-03-01T03:22:50;95449.84;;;7.58;76.81
22257;BME280;11297;42.686;23.374;2023-03-01T03:25:16;95451.06;;;7.65;77.04
22257;BME280;11297;42.686;23.374;2023-03-01T03:27:43;95456.78;;;7.62;76.98
22257;BME280;11297;42.686;23.374;2023-03-01T03:30:12;95465.63;;;7.57;76.96
22257;BME280;11297;42.686;23.374;2023-03-01T03:32:39;95462.22;;;7.61;76.85
22257;BME280;11297;42.686;23.374;2023-03-01T03:35:06;95467.88;;;7.63;76.81
22257;BME280;11297;42.686;23.374;2023-03-01T03:37:40;95455.72;;;7.63;76.86
22257;BME280;11297;42.686;23.374;2023-03-01T03:40:26;95460.09;;;7.68;76.37
22257;BME280;11297;42.686;23.374;2023-03-01T03:42:52;95428.25;;;7.39;76.49
22257;BME280;11297;42.686;23.374;2023-03-01T03:45:18;95463.72;;;7.67;76.58
22257;BME280;11297;42.686;23.374;2023-03-01T03:47:44;95462.75;;;7.58;76.75
22257;BME280;11297;42.686;23.374;2023-03-01T03:50:12;95461.75;;;7.54;76.99
22257;BME280;11297;42.686;23.374;2023-03-01T03:52:37;95468.47;;;7.55;77.15
22257;BME280;11297;42.686;23.374;2023-03-01T03:55:04;95452.41;;;7.58;77.00
22257;BME280;11297;42.686;23.374;2023-03-01T03:57:54;95472.25;;;7.67;76.45
22257;BME280;11297;42.686;23.374;2023-03-01T04:00:22;95458.41;;;7.49;76.12
22257;BME280;11297;42.686;23.374;2023-03-01T04:02:50;95467.72;;;7.50;76.80
22257;BME280;11297;42.686;23.374;2023-03-01T04:05:17;95470.44;;;7.68;76.53
22257;BME280;11297;42.686;23.374;2023-03-01T04:07:43;95464.28;;;7.64;76.57
22257;BME280;11297;42.686;23.374;2023-03-01T04:10:15;95470.94;;;7.70;76.67
22257;BME280;11297;42.686;23.374;2023-03-01T04:12:40;95476.13;;;7.70;76.26
22257;BME280;11297;42.686;23.374;2023-03-01T04:15:09;95471.09;;;7.83;76.30
22257;BME280;11297;42.686;23.374;2023-03-01T04:17:43;95461.53;;;7.84;76.31
22257;BME280;11297;42.686;23.374;2023-03-01T04:20:11;95474.94;;;7.86;76.10
22257;BME280;11297;42.686;23.374;2023-03-01T04:22:38;95473.91;;;7.87;75.73
22257;BME280;11297;42.686;23.374;2023-03-01T04:25:04;95472.34;;;7.91;75.13
22257;BME280;11297;42.686;23.374;2023-03-01T04:27:33;95463.63;;;7.77;75.34
22257;BME280;11297;42.686;23.374;2023-03-01T04:29:59;95463.09;;;7.80;75.26
22257;BME280;11297;42.686;23.374;2023-03-01T04:32:24;95476.78;;;7.85;74.93
22257;BME280;11297;42.686;23.374;2023-03-01T04:34:49;95465.63;;;7.90;75.05
22257;BME280;11297;42.686;23.374;2023-03-01T04:37:15;95468.81;;;7.77;75.64
22257;BME280;11297;42.686;23.374;2023-03-01T04:39:41;95472.25;;;7.67;75.47
22257;BME280;11297;42.686;23.374;2023-03-01T04:42:11;95470.69;;;7.66;75.62
22257;BME280;11297;42.686;23.374;2023-03-01T04:44:36;95467.31;;;7.71;76.40
22257;BME280;11297;42.686;23.374;2023-03-01T04:47:02;95461.69;;;7.59;76.41
22257;BME280;11297;42.686;23.374;2023-03-01T04:49:27;95464.38;;;7.49;76.91
22257;BME280;11297;42.686;23.374;2023-03-01T04:51:53;95457.13;;;7.51;77.41
22257;BME280;11297;42.686;23.374;2023-03-01T04:54:18;95447.59;;;7.80;78.74
22257;BME280;11297;42.686;23.374;2023-03-01T04:56:43;95454.84;;;7.78;77.17
22257;BME280;11297;42.686;23.374;2023-03-01T04:59:09;95461.31;;;8.65;84.28
22257;BME280;11297;42.686;23.374;2023-03-01T05:01:35;95451.22;;;8.12;78.20
22257;BME280;11297;42.686;23.374;2023-03-01T05:04:01;95456.56;;;7.87;76.52
22257;BME280;11297;42.686;23.374;2023-03-01T05:06:28;95448.78;;;7.92;75.83
22257;BME280;11297;42.686;23.374;2023-03-01T05:08:53;95462.22;;;7.94;75.27
22257;BME280;11297;42.686;23.374;2023-03-01T05:11:19;95453.81;;;7.79;75.10
22257;BME280;11297;42.686;23.374;2023-03-01T05:13:44;95467.25;;;7.81;76.21
22257;BME280;11297;42.686;23.374;2023-03-01T05:16:10;95455.34;;;7.80;75.76
22257;BME280;11297;42.686;23.374;2023-03-01T05:18:39;95462.97;;;7.95;75.53
22257;BME280;11297;42.686;23.374;2023-03-01T05:21:07;95471.53;;;7.95;74.63
22257;BME280;11297;42.686;23.374;2023-03-01T05:23:34;95459.06;;;7.69;75.39
22257;BME280;11297;42.686;23.374;2023-03-01T05:26:00;95462.66;;;7.73;76.22
22257;BME280;11297;42.686;23.374;2023-03-01T05:28:27;95460.84;;;7.73;75.87
22257;BME280;11297;42.686;23.374;2023-03-01T05:30:54;95459.88;;;7.64;76.03
22257;BME280;11297;42.686;23.374;2023-03-01T05:33:19;95459.81;;;7.69;76.40
22257;BME280;11297;42.686;23.374;2023-03-01T05:35:47;95457.16;;;7.79;78.91
22257;BME280;11297;42.686;23.374;2023-03-01T05:38:14;95460.59;;;7.70;77.53
22257;BME280;11297;42.686;23.374;2023-03-01T05:40:41;95468.28;;;7.80;76.33
22257;BME280;11297;42.686;23.374;2023-03-01T05:43:06;95467.19;;;7.86;76.08
22257;BME280;11297;42.686;23.374;2023-03-01T05:45:32;95471.66;;;7.80;75.98
22257;BME280;11297;42.686;23.374;2023-03-01T05:47:58;95475.50;;;7.83;75.82
22257;BME280;11297;42.686;23.374;2023-03-01T05:50:26;95484.63;;;7.70;76.19
22257;BME280;11297;42.686;23.374;2023-03-01T05:52:59;95473.28;;;7.66;75.96
22257;BME280;11297;42.686;23.374;2023-03-01T05:55:26;95469.88;;;7.76;75.58
22257;BME280;11297;42.686;23.374;2023-03-01T05:57:52;95477.34;;;7.77;76.03
22257;BME280;11297;42.686;23.374;2023-03-01T06:00:19;95484.16;;;7.63;76.31
22257;BME280;11297;42.686;23.374;2023-03-01T06:02:47;95492.81;;;7.82;79.46
22257;BME280;11297;42.686;23.374;2023-03-01T06:05:14;95496.69;;;7.85;76.59
22257;BME280;11297;42.686;23.374;2023-03-01T06:07:41;95492.56;;;7.84;75.90
22257;BME280;11297;42.686;23.374;2023-03-01T06:10:08;95478.16;;;7.73;75.28
22257;BME280;11297;42.686;23.374;2023-03-01T06:12:35;95505.59;;;7.69;76.30
22257;BME280;11297;42.686;23.374;2023-03-01T06:15:01;95500.72;;;7.62;76.31
22257;BME280;11297;42.686;23.374;2023-03-01T06:17:29;95509.28;;;7.58;77.08
22257;BME280;11297;42.686;23.374;2023-03-01T06:19:55;95507.38;;;7.73;77.01
22257;BME280;11297;42.686;23.374;2023-03-01T06:22:20;95505.84;;;7.67;77.10
22257;BME280;11297;42.686;23.374;2023-03-01T06:24:46;95513.03;;;7.75;76.21
22257;BME280;11297;42.686;23.374;2023-03-01T06:27:11;95508.16;;;7.69;75.84
22257;BME280;11297;42.686;23.374;2023-03-01T06:29:36;95499.88;;;7.72;76.04
22257;BME280;11297;42.686;23.374;2023-03-01T06:32:02;95509.19;;;7.73;75.44
22257;BME280;11297;42.686;23.374;2023-03-01T06:34:28;95502.03;;;7.60;75.42
22257;BME280;11297;42.686;23.374;2023-03-01T06:36:53;95512.84;;;7.67;75.96
22257;BME280;11297;42.686;23.374;2023-03-01T06:39:19;95490.97;;;7.50;75.70
22257;BME280;11297;42.686;23.374;2023-03-01T06:41:44;95513.88;;;7.66;75.85
22257;BME280;11297;42.686;23.374;2023-03-01T06:44:10;95509.50;;;7.61;75.80
22257;BME280;11297;42.686;23.374;2023-03-01T06:46:35;95501.44;;;7.68;75.22
22257;BME280;11297;42.686;23.374;2023-03-01T06:49:01;95503.47;;;7.76;75.32
22257;BME280;11297;42.686;23.374;2023-03-01T06:51:29;95516.84;;;7.88;75.42
22257;BME280;11297;42.686;23.374;2023-03-01T06:53:55;95492.34;;;7.80;75.17
22257;BME280;11297;42.686;23.374;2023-03-01T06:56:20;95512.94;;;7.90;74.84
22257;BME280;11297;42.686;23.374;2023-03-01T06:58:46;95510.38;;;7.85;75.02
22257;BME280;11297;42.686;23.374;2023-03-01T07:01:11;95502.28;;;7.97;74.91
22257;BME280;11297;42.686;23.374;2023-03-01T07:03:37;95507.69;;;8.00;74.65
22257;BME280;11297;42.686;23.374;2023-03-01T07:06:02;95515.66;;;8.04;74.61
22257;BME280;11297;42.686;23.374;2023-03-01T07:08:28;95502.75;;;8.04;74.36
22257;BME280;11297;42.686;23.374;2023-03-01T07:10:57;95506.94;;;8.00;74.33
22257;BME280;11297;42.686;23.374;2023-03-01T07:13:22;95523.06;;;7.87;74.43
22257;BME280;11297;42.686;23.374;2023-03-01T07:15:47;95511.97;;;7.81;74.67
22257;BME280;11297;42.686;23.374;2023-03-01T07:18:13;95506.47;;;7.93;75.04
22257;BME280;11297;42.686;23.374;2023-03-01T07:20:38;95510.81;;;7.97;74.87
22257;BME280;11297;42.686;23.374;2023-03-01T07:23:05;95505.41;;;7.94;75.35
22257;BME280;11297;42.686;23.374;2023-03-01T07:25:31;95507.38;;;8.07;75.10
22257;BME280;11297;42.686;23.374;2023-03-01T07:27:57;95512.66;;;7.92;74.96
22257;BME280;11297;42.686;23.374;2023-03-01T07:30:23;95500.41;;;8.07;74.50
22257;BME280;11297;42.686;23.374;2023-03-01T07:32:50;95491.03;;;8.16;73.99
22257;BME280;11297;42.686;23.374;2023-03-01T07:35:16;95493.78;;;8.24;73.10
22257;BME280;11297;42.686;23.374;2023-03-01T07:37:41;95494.34;;;8.21;72.75
22257;BME280;11297;42.686;23.374;2023-03-01T07:40:07;95500.59;;;8.15;72.70
22257;BME280;11297;42.686;23.374;2023-03-01T07:42:33;95506.38;;;8.36;72.46
22257;BME280;11297;42.686;23.374;2023-03-01T07:44:58;95495.69;;;8.42;71.32
22257;BME280;11297;42.686;23.374;2023-03-01T07:47:24;95496.75;;;8.41;71.40
22257;BME280;11297;42.686;23.374;2023-03-01T07:49:49;95498.97;;;8.53;71.10
22257;BME280;11297;42.686;23.374;2023-03-01T07:52:16;95485.03;;;8.49;71.06
22257;BME280;11297;42.686;23.374;2023-03-01T07:54:42;95480.47;;;8.64;70.93
22257;BME280;11297;42.686;23.374;2023-03-01T07:57:09;95482.06;;;8.60;70.90
22257;BME280;11297;42.686;23.374;2023-03-01T07:59:34;95491.94;;;8.58;70.45
22257;BME280;11297;42.686;23.374;2023-03-01T08:01:59;95465.75;;;8.59;70.12
22257;BME280;11297;42.686;23.374;2023-03-01T08:04:25;95448.06;;;8.43;70.30
22257;BME280;11297;42.686;23.374;2023-03-01T08:06:52;95482.13;;;8.78;70.12
22257;BME280;11297;42.686;23.374;2023-03-01T08:09:17;95471.91;;;8.87;69.64
22257;BME280;11297;42.686;23.374;2023-03-01T08:11:43;95476.50;;;8.95;68.89
22257;BME280;11297;42.686;23.374;2023-03-01T08:14:08;95479.41;;;8.88;68.27
22257;BME280;11297;42.686;23.374;2023-03-01T08:16:36;95464.44;;;8.85;68.60
22257;BME280;11297;42.686;23.374;2023-03-01T08:19:09;95475.16;;;8.97;68.88
22257;BME280;11297;42.686;23.374;2023-03-01T08:21:34;95472.66;;;8.92;69.27
22257;BME280;11297;42.686;23.374;2023-03-01T08:24:02;95468.75;;;8.95;68.69
22257;BME280;11297;42.686;23.374;2023-03-01T08:26:27;95468.66;;;9.00;68.69
22257;BME280;11297;42.686;23.374;2023-03-01T08:28:53;95463.75;;;8.98;68.71
22257;BME280;11297;42.686;23.374;2023-03-01T08:33:47;95471.06;;;8.96;68.36
22257;BME280;11297;42.686;23.374;2023-03-01T08:36:21;95478.19;;;9.04;68.18
22257;BME280;11297;42.686;23.374;2023-03-01T08:38:47;95463.31;;;9.14;68.54
22257;BME280;11297;42.686;23.374;2023-03-01T08:41:12;95470.31;;;9.14;68.69
22257;BME280;11297;42.686;23.374;2023-03-01T08:43:38;95478.81;;;8.96;67.80
22257;BME280;11297;42.686;23.374;2023-03-01T08:46:03;95476.34;;;8.86;66.99
22257;BME280;11297;42.686;23.374;2023-03-01T08:48:29;95489.66;;;8.98;67.45
22257;BME280;11297;42.686;23.374;2023-03-01T08:50:55;95481.00;;;9.07;67.11
22257;BME280;11297;42.686;23.374;2023-03-01T08:53:20;95472.47;;;9.07;67.30
22257;BME280;11297;42.686;23.374;2023-03-01T08:55:45;95481.91;;;9.16;67.27
22257;BME280;11297;42.686;23.374;2023-03-01T08:58:11;95484.56;;;8.93;65.57
22257;BME280;11297;42.686;23.374;2023-03-01T09:00:36;95489.94;;;8.97;65.62
22257;BME280;11297;42.686;23.374;2023-03-01T09:03:02;95481.19;;;8.93;65.86
22257;BME280;11297;42.686;23.374;2023-03-01T09:05:27;95478.66;;;8.88;65.72
22257;BME280;11297;42.686;23.374;2023-03-01T09:07:53;95481.34;;;9.01;65.93
22257;BME280;11297;42.686;23.374;2023-03-01T09:10:18;95468.50;;;8.91;66.24
22257;BME280;11297;42.686;23.374;2023-03-01T09:12:43;95466.44;;;9.11;66.57
22257;BME280;11297;42.686;23.374;2023-03-01T09:15:09;95461.25;;;9.11;66.62
22257;BME280;11297;42.686;23.374;2023-03-01T09:17:36;95473.38;;;9.16;65.85
22257;BME280;11297;42.686;23.374;2023-03-01T09:20:01;95487.66;;;9.13;66.44
22257;BME280;11297;42.686;23.374;2023-03-01T09:22:26;95471.63;;;9.30;66.05
22257;BME280;11297;42.686;23.374;2023-03-01T09:24:52;95463.09;;;9.29;66.16
22257;BME280;11297;42.686;23.374;2023-03-01T09:27:17;95470.69;;;9.26;65.96
22257;BME280;11297;42.686;23.374;2023-03-01T09:29:44;95470.69;;;9.26;65.64
22257;BME280;11297;42.686;23.374;2023-03-01T09:32:10;95468.56;;;9.28;66.11
22257;BME280;11297;42.686;23.374;2023-03-01T09:34:35;95473.53;;;9.24;66.52
22257;BME280;11297;42.686;23.374;2023-03-01T09:37:21;95460.16;;;9.17;66.72
22257;BME280;11297;42.686;23.374;2023-03-01T09:39:46;95464.34;;;9.13;66.87
22257;BME280;11297;42.686;23.374;2023-03-01T09:42:12;95440.72;;;8.97;67.10
22257;BME280;11297;42.686;23.374;2023-03-01T09:44:53;95457.19;;;9.24;66.12
22257;BME280;11297;42.686;23.374;2023-03-01T09:47:40;95454.69;;;9.01;66.20
22257;BME280;11297;42.686;23.374;2023-03-01T09:50:12;95439.25;;;8.91;65.82
22257;BME280;11297;42.686;23.374;2023-03-01T09:52:43;95444.97;;;9.11;66.12
22257;BME280;11297;42.686;23.374;2023-03-01T09:55:14;95444.31;;;9.19;65.15
22257;BME280;11297;42.686;23.374;2023-03-01T09:57:57;95462.59;;;9.09;65.41
22257;BME280;11297;42.686;23.374;2023-03-01T10:00:38;95448.38;;;9.06;64.53
22257;BME280;11297;42.686;23.374;2023-03-01T10:03:16;95433.47;;;9.17;64.89
22257;BME280;11297;42.686;23.374;2023-03-01T10:11:35;95436.38;;;9.10;65.56
22257;BME280;11297;42.686;23.374;2023-03-01T10:16:57;95432.75;;;9.11;65.93
22257;BME280;11297;42.686;23.374;2023-03-01T10:19:27;95435.50;;;9.20;65.73
22257;BME280;11297;42.686;23.374;2023-03-01T10:21:58;95415.06;;;9.18;64.84
22257;BME280;11297;42.686;23.374;2023-03-01T10:24:32;95445.44;;;9.13;64.91
22257;BME280;11297;42.686;23.374;2023-03-01T10:27:11;95422.03;;;9.18;65.62
22257;BME280;11297;42.686;23.374;2023-03-01T10:30:03;95411.41;;;9.19;65.71
22257;BME280;11297;42.686;23.374;2023-03-01T10:32:32;95413.66;;;9.26;64.99
22257;BME280;11297;42.686;23.374;2023-03-01T10:34:57;95408.81;;;9.38;65.42
22257;BME280;11297;42.686;23.374;2023-03-01T10:37:23;95411.81;;;9.45;64.67
22257;BME280;11297;42.686;23.374;2023-03-01T10:40:09;95401.50;;;9.58;64.16
22257;BME280;11297;42.686;23.374;2023-03-01T10:42:46;95411.25;;;9.48;63.78
22257;BME280;11297;42.686;23.374;2023-03-01T10:50:30;95408.41;;;13.14;82.80
22257;BME280;11297;42.686;23.374;2023-03-01T10:53:01;95412.03;;;12.49;60.90
22257;BME280;11297;42.686;23.374;2023-03-01T10:55:45;95384.66;;;11.34;57.96
22257;BME280;11297;42.686;23.374;2023-03-01T10:58:18;95392.91;;;11.01;59.11
22257;BME280;11297;42.686;23.374;2023-03-01T11:00:57;95403.03;;;10.76;59.78
22257;BME280;11297;42.686;23.374;2023-03-01T11:03:30;95398.91;;;10.75;59.84
22257;BME280;11297;42.686;23.374;2023-03-01T11:06:00;95399.56;;;10.53;60.51
22257;BME280;11297;42.686;23.374;2023-03-01T11:08:34;95399.88;;;10.52;60.73
22257;BME280;11297;42.686;23.374;2023-03-01T11:11:07;95391.41;;;10.20;61.10
22257;BME280;11297;42.686;23.374;2023-03-01T11:13:35;95387.97;;;10.38;61.56
22257;BME280;11297;42.686;23.374;2023-03-01T11:16:06;95411.31;;;10.24;61.57
22257;BME280;11297;42.686;23.374;2023-03-01T11:18:33;95408.16;;;10.41;61.27
22257;BME280;11297;42.686;23.374;2023-03-01T11:20:59;95405.44;;;10.32;61.42
22257;BME280;11297;42.686;23.374;2023-03-01T11:23:29;95393.44;;;10.23;61.07
22257;BME280;11297;42.686;23.374;2023-03-01T11:25:57;95396.28;;;10.08;62.22
22257;BME280;11297;42.686;23.374;2023-03-01T11:28:25;95385.34;;;10.24;62.47
22257;BME280;11297;42.686;23.374;2023-03-01T11:30:59;95399.38;;;10.23;61.72
22257;BME280;11297;42.686;23.374;2023-03-01T11:36:51;95393.78;;;10.30;62.34
22257;BME280;11297;42.686;23.374;2023-03-01T11:39:39;95389.88;;;10.32;62.31
22257;BME280;11297;42.686;23.374;2023-03-01T11:42:13;95364.38;;;10.07;62.43
22257;BME280;11297;42.686;23.374;2023-03-01T11:44:43;95374.69;;;10.26;61.90
22257;BME280;11297;42.686;23.374;2023-03-01T11:50:19;95365.75;;;10.45;62.47
22257;BME280;11297;42.686;23.374;2023-03-01T11:58:06;95349.75;;;10.65;62.16
22257;BME280;11297;42.686;23.374;2023-03-01T12:03:30;95346.00;;;10.44;61.87
22257;BME280;11297;42.686;23.374;2023-03-01T12:08:40;95341.16;;;13.86;83.23
22257;BME280;11297;42.686;23.374;2023-03-01T12:11:20;95346.06;;;14.71;72.76
22257;BME280;11297;42.686;23.374;2023-03-01T12:27:39;95334.44;;;14.23;49.24
22257;BME280;11297;42.686;23.374;2023-03-01T12:33:08;95314.91;;;12.74;52.75
22257;BME280;11297;42.686;23.374;2023-03-01T12:49:15;95320.56;;;11.38;58.38
22257;BME280;11297;42.686;23.374;2023-03-01T12:51:54;95321.69;;;11.24;59.27
22257;BME280;11297;42.686;23.374;2023-03-01T12:54:27;95329.34;;;10.72;59.99
22257;BME280;11297;42.686;23.374;2023-03-01T12:56:55;95328.50;;;10.63;60.42
22257;BME280;11297;42.686;23.374;2023-03-01T13:07:17;95320.16;;;10.39;62.31
22257;BME280;11297;42.686;23.374;2023-03-01T13:10:14;95317.94;;;10.19;63.26
22257;BME280;11297;42.686;23.374;2023-03-01T13:17:54;95333.31;;;10.29;63.35
22257;BME280;11297;42.686;23.374;2023-03-01T13:20:26;95318.22;;;10.18;63.75
22257;BME280;11297;42.686;23.374;2023-03-01T13:30:57;95336.97;;;10.15;64.89
22257;BME280;11297;42.686;23.374;2023-03-01T13:35:48;95339.94;;;10.08;65.07
22257;BME280;11297;42.686;23.374;2023-03-01T13:41:02;95330.94;;;10.06;65.10
22257;BME280;11297;42.686;23.374;2023-03-01T13:43:32;95326.69;;;10.23;65.05
22257;BME280;11297;42.686;23.374;2023-03-01T13:45:59;95325.13;;;10.22;65.05
22257;BME280;11297;42.686;23.374;2023-03-01T13:48:28;95325.34;;;10.26;65.04
22257;BME280;11297;42.686;23.374;2023-03-01T13:51:03;95319.59;;;10.15;64.94
22257;BME280;11297;42.686;23.374;2023-03-01T13:53:33;95323.22;;;10.01;65.13
22257;BME280;11297;42.686;23.374;2023-03-01T13:56:02;95326.59;;;10.02;65.80
22257;BME280;11297;42.686;23.374;2023-03-01T13:58:33;95322.84;;;10.07;65.81
22257;BME280;11297;42.686;23.374;2023-03-01T14:01:31;95327.84;;;10.44;69.64
22257;BME280;11297;42.686;23.374;2023-03-01T14:03:57;95318.22;;;10.31;66.73
22257;BME280;11297;42.686;23.374;2023-03-01T14:06:31;95331.13;;;10.23;66.14
22257;BME280;11297;42.686;23.374;2023-03-01T14:09:20;95328.22;;;10.11;65.78
22257;BME280;11297;42.686;23.374;2023-03-01T14:14:34;95317.09;;;10.10;66.27
22257;BME280;11297;42.686;23.374;2023-03-01T14:17:45;95327.47;;;10.10;65.97
22257;BME280;11297;42.686;23.374;2023-03-01T14:20:16;95314.00;;;10.08;66.15
22257;BME280;11297;42.686;23.374;2023-03-01T14:22:44;95312.38;;;10.12;66.13
22257;BME280;11297;42.686;23.374;2023-03-01T14:25:20;95315.94;;;10.03;66.76
22257;BME280;11297;42.686;23.374;2023-03-01T14:27:54;95311.31;;;10.00;67.31
22257;BME280;11297;42.686;23.374;2023-03-01T14:33:00;95304.94;;;9.93;67.04
22257;BME280;11297;42.686;23.374;2023-03-01T14:35:28;95288.56;;;9.79;67.04
22257;BME280;11297;42.686;23.374;2023-03-01T14:37:54;95309.88;;;9.94;67.10
22257;BME280;11297;42.686;23.374;2023-03-01T14:40:42;95307.28;;;9.94;66.80
22257;BME280;11297;42.686;23.374;2023-03-01T14:43:12;95314.63;;;9.87;67.14
22257;BME280;11297;42.686;23.374;2023-03-01T14:45:47;95312.03;;;9.74;67.19
22257;BME280;11297;42.686;23.374;2023-03-01T14:48:14;95305.06;;;10.01;70.16
22257;BME280;11297;42.686;23.374;2023-03-01T14:50:41;95308.16;;;9.71;67.98
22257;BME280;11297;42.686;23.374;2023-03-01T14:53:15;95302.31;;;9.66;67.70
22257;BME280;11297;42.686;23.374;2023-03-01T14:55:45;95322.28;;;9.79;68.28
22257;BME280;11297;42.686;23.374;2023-03-01T14:58:13;95319.03;;;9.73;67.57
22257;BME280;11297;42.686;23.374;2023-03-01T15:00:46;95307.19;;;9.54;68.73